sensor_id;sensor_type;location;lat;lon;timestamp;temperature;humidity
4755;DHT22;2391;47.212;7.542;2023-05-02T00:01:51;15.10;97.50
4755;DHT22;2391;47.212;7.542;2023-05-02T00:04:17;15.00;97.40
4755;DHT22;2391;47.212;7.542;2023-05-02T00:06:43;15.00;97.50
4755;DHT22;2391;47.212;7.542;2023-05-02T00:09:11;15.00;97.40
4755;DHT22;2391;47.212;7.542;2023-05-02T00:11:38;15.00;97.40
4755;DHT22;2391;47.212;7.542;2023-05-02T00:14:03;15.00;97.40
4755;DHT22;2391;47.212;7.542;2023-05-02T00:16:29;15.00;97.40
4755;DHT22;2391;47.212;7.542;2023-05-02T00:18:55;15.00;97.40
4755;DHT22;2391;47.212;7.542;2023-05-02T00:21:21;15.00;97.30
4755;DHT22;2391;47.212;7.542;2023-05-02T00:23:46;15.00;97.30
4755;DHT22;2391;47.212;7.542;2023-05-02T00:26:12;15.00;97.30
4755;DHT22;2391;47.212;7.542;2023-05-02T00:28:38;15.00;97.40
4755;DHT22;2391;47.212;7.542;2023-05-02T00:31:04;15.00;97.40
4755;DHT22;2391;47.212;7.542;2023-05-02T00:33:30;15.00;97.40
4755;DHT22;2391;47.212;7.542;2023-05-02T00:35:56;14.90;97.40
4755;DHT22;2391;47.212;7.542;2023-05-02T00:38:22;14.90;97.50
4755;DHT22;2391;47.212;7.542;2023-05-02T00:40:49;14.90;97.50
4755;DHT22;2391;47.212;7.542;2023-05-02T00:43:18;14.90;97.40
4755;DHT22;2391;47.212;7.542;2023-05-02T00:45:45;14.90;97.40
4755;DHT22;2391;47.212;7.542;2023-05-02T00:48:11;14.90;97.30
4755;DHT22;2391;47.212;7.542;2023-05-02T00:50:39;14.90;97.40
4755;DHT22;2391;47.212;7.542;2023-05-02T00:53:06;14.90;97.40
4755;DHT22;2391;47.212;7.542;2023-05-02T00:55:33;14.90;97.40
4755;DHT22;2391;47.212;7.542;2023-05-02T00:58:00;14.90;97.30
4755;DHT22;2391;47.212;7.542;2023-05-02T01:00:32;14.80;97.30
4755;DHT22;2391;47.212;7.542;2023-05-02T01:03:04;14.80;97.20
4755;DHT22;2391;47.212;7.542;2023-05-02T01:05:32;14.80;97.20
4755;DHT22;2391;47.212;7.542;2023-05-02T01:08:09;14.80;97.20
4755;DHT22;2391;47.212;7.542;2023-05-02T01:13:16;14.70;97.40
4755;DHT22;2391;47.212;7.542;2023-05-02T01:15:41;14.60;97.40
4755;DHT22;2391;47.212;7.542;2023-05-02T01:18:08;14.60;97.40
4755;DHT22;2391;47.212;7.542;2023-05-02T01:20:38;14.60;97.30
4755;DHT22;2391;47.212;7.542;2023-05-02T01:23:10;14.60;97.30
4755;DHT22;2391;47.212;7.542;2023-05-02T01:31:27;14.60;97.40
4755;DHT22;2391;47.212;7.542;2023-05-02T01:33:54;14.60;97.30
4755;DHT22;2391;47.212;7.542;2023-05-02T01:36:22;14.60;97.40
4755;DHT22;2391;47.212;7.542;2023-05-02T01:38:50;14.50;97.40
4755;DHT22;2391;47.212;7.542;2023-05-02T01:41:17;14.50;97.40
4755;DHT22;2391;47.212;7.542;2023-05-02T01:43:45;14.50;97.40
4755;DHT22;2391;47.212;7.542;2023-05-02T01:46:13;14.50;97.30
4755;DHT22;2391;47.212;7.542;2023-05-02T01:48:43;14.50;97.30
4755;DHT22;2391;47.212;7.542;2023-05-02T01:51:10;14.50;97.40
4755;DHT22;2391;47.212;7.542;2023-05-02T01:53:37;14.50;97.40
4755;DHT22;2391;47.212;7.542;2023-05-02T01:56:04;14.60;97.40
4755;DHT22;2391;47.212;7.542;2023-05-02T01:58:32;14.60;97.50
4755;DHT22;2391;47.212;7.542;2023-05-02T02:01:00;14.60;97.60
4755;DHT22;2391;47.212;7.542;2023-05-02T02:03:28;14.50;97.70
4755;DHT22;2391;47.212;7.542;2023-05-02T02:05:55;14.50;97.70
4755;DHT22;2391;47.212;7.542;2023-05-02T02:08:23;14.50;97.80
4755;DHT22;2391;47.212;7.542;2023-05-02T02:10:53;14.50;97.70
4755;DHT22;2391;47.212;7.542;2023-05-02T02:13:28;14.50;97.70
4755;DHT22;2391;47.212;7.542;2023-05-02T02:15:52;14.50;97.70
4755;DHT22;2391;47.212;7.542;2023-05-02T02:18:22;14.50;97.70
4755;DHT22;2391;47.212;7.542;2023-05-02T02:20:50;14.50;97.70
4755;DHT22;2391;47.212;7.542;2023-05-02T02:23:20;14.50;97.60
4755;DHT22;2391;47.212;7.542;2023-05-02T02:25:49;14.60;97.60
4755;DHT22;2391;47.212;7.542;2023-05-02T02:28:15;14.60;97.60
4755;DHT22;2391;47.212;7.542;2023-05-02T02:30:41;14.50;97.60
4755;DHT22;2391;47.212;7.542;2023-05-02T02:33:07;14.60;97.70
4755;DHT22;2391;47.212;7.542;2023-05-02T02:35:41;14.60;97.70
4755;DHT22;2391;47.212;7.542;2023-05-02T02:38:41;14.60;97.60
4755;DHT22;2391;47.212;7.542;2023-05-02T02:41:02;14.50;97.60
4755;DHT22;2391;47.212;7.542;2023-05-02T02:44:04;14.50;97.60
4755;DHT22;2391;47.212;7.542;2023-05-02T02:46:47;14.50;97.60
4755;DHT22;2391;47.212;7.542;2023-05-02T02:49:23;14.50;97.70
4755;DHT22;2391;47.212;7.542;2023-05-02T02:52:04;14.40;97.80
4755;DHT22;2391;47.212;7.542;2023-05-02T02:54:40;14.30;97.80
4755;DHT22;2391;47.212;7.542;2023-05-02T02:57:23;14.30;97.90
4755;DHT22;2391;47.212;7.542;2023-05-02T03:00:17;14.30;97.90
4755;DHT22;2391;47.212;7.542;2023-05-02T03:02:41;14.30;97.80
4755;DHT22;2391;47.212;7.542;2023-05-02T03:05:09;14.30;98.00
4755;DHT22;2391;47.212;7.542;2023-05-02T03:07:35;14.30;98.10
4755;DHT22;2391;47.212;7.542;2023-05-02T03:10:02;14.30;98.10
4755;DHT22;2391;47.212;7.542;2023-05-02T03:12:29;14.30;98.00
4755;DHT22;2391;47.212;7.542;2023-05-02T03:15:02;14.30;98.00
4755;DHT22;2391;47.212;7.542;2023-05-02T03:17:24;14.30;97.80
4755;DHT22;2391;47.212;7.542;2023-05-02T03:19:50;14.40;97.80
4755;DHT22;2391;47.212;7.542;2023-05-02T03:22:16;14.40;97.80
4755;DHT22;2391;47.212;7.542;2023-05-02T03:24:42;14.40;97.70
4755;DHT22;2391;47.212;7.542;2023-05-02T03:27:07;14.40;97.70
4755;DHT22;2391;47.212;7.542;2023-05-02T03:29:33;14.40;97.60
4755;DHT22;2391;47.212;7.542;2023-05-02T03:31:59;14.40;97.50
4755;DHT22;2391;47.212;7.542;2023-05-02T03:34:25;14.40;97.50
4755;DHT22;2391;47.212;7.542;2023-05-02T03:36:51;14.40;97.50
4755;DHT22;2391;47.212;7.542;2023-05-02T03:39:17;14.40;97.40
4755;DHT22;2391;47.212;7.542;2023-05-02T03:41:42;14.40;97.40
4755;DHT22;2391;47.212;7.542;2023-05-02T03:44:08;14.40;97.40
4755;DHT22;2391;47.212;7.542;2023-05-02T03:46:35;14.30;97.50
4755;DHT22;2391;47.212;7.542;2023-05-02T03:49:01;14.30;97.60
4755;DHT22;2391;47.212;7.542;2023-05-02T03:51:26;14.30;97.70
4755;DHT22;2391;47.212;7.542;2023-05-02T03:53:52;14.30;97.50
4755;DHT22;2391;47.212;7.542;2023-05-02T03:56:19;14.30;97.50
4755;DHT22;2391;47.212;7.542;2023-05-02T03:58:45;14.30;97.50
4755;DHT22;2391;47.212;7.542;2023-05-02T04:01:15;14.30;97.50
4755;DHT22;2391;47.212;7.542;2023-05-02T04:03:41;14.30;97.50
4755;DHT22;2391;47.212;7.542;2023-05-02T04:06:07;14.30;97.60
4755;DHT22;2391;47.212;7.542;2023-05-02T04:08:33;14.30;97.60
4755;DHT22;2391;47.212;7.542;2023-05-02T04:10:59;14.30;97.50
4755;DHT22;2391;47.212;7.542;2023-05-02T04:13:25;14.30;97.30
4755;DHT22;2391;47.212;7.542;2023-05-02T04:15:51;14.30;97.30
4755;DHT22;2391;47.212;7.542;2023-05-02T04:18:16;14.30;97.20
4755;DHT22;2391;47.212;7.542;2023-05-02T04:20:42;14.30;97.30
4755;DHT22;2391;47.212;7.542;2023-05-02T04:23:09;14.30;97.30
4755;DHT22;2391;47.212;7.542;2023-05-02T04:25:35;14.20;97.10
4755;DHT22;2391;47.212;7.542;2023-05-02T04:28:01;14.20;97.20
4755;DHT22;2391;47.212;7.542;2023-05-02T04:30:26;14.10;97.30
4755;DHT22;2391;47.212;7.542;2023-05-02T04:32:52;14.20;97.30
4755;DHT22;2391;47.212;7.542;2023-05-02T04:35:18;14.20;97.30
4755;DHT22;2391;47.212;7.542;2023-05-02T04:37:44;14.20;97.20
4755;DHT22;2391;47.212;7.542;2023-05-02T04:40:10;14.20;97.00
4755;DHT22;2391;47.212;7.542;2023-05-02T04:42:37;14.20;96.90
4755;DHT22;2391;47.212;7.542;2023-05-02T04:45:03;14.20;96.90
4755;DHT22;2391;47.212;7.542;2023-05-02T04:47:29;14.20;97.00
4755;DHT22;2391;47.212;7.542;2023-05-02T04:49:55;14.20;97.10
4755;DHT22;2391;47.212;7.542;2023-05-02T04:52:20;14.20;96.90
4755;DHT22;2391;47.212;7.542;2023-05-02T04:54:46;14.20;97.10
4755;DHT22;2391;47.212;7.542;2023-05-02T04:57:12;14.20;97.00
4755;DHT22;2391;47.212;7.542;2023-05-02T04:59:38;14.20;97.00
4755;DHT22;2391;47.212;7.542;2023-05-02T05:02:03;14.20;97.10
4755;DHT22;2391;47.212;7.542;2023-05-02T05:04:29;14.20;97.20
4755;DHT22;2391;47.212;7.542;2023-05-02T05:06:55;14.20;97.20
4755;DHT22;2391;47.212;7.542;2023-05-02T05:09:20;14.20;97.20
4755;DHT22;2391;47.212;7.542;2023-05-02T05:11:46;14.20;97.20
4755;DHT22;2391;47.212;7.542;2023-05-02T05:14:12;14.20;97.30
4755;DHT22;2391;47.212;7.542;2023-05-02T05:16:38;14.20;97.30
4755;DHT22;2391;47.212;7.542;2023-05-02T05:19:03;14.20;97.40
4755;DHT22;2391;47.212;7.542;2023-05-02T05:21:29;14.20;97.40
4755;DHT22;2391;47.212;7.542;2023-05-02T05:23:55;14.20;97.50
4755;DHT22;2391;47.212;7.542;2023-05-02T05:26:21;14.10;97.60
4755;DHT22;2391;47.212;7.542;2023-05-02T05:28:48;14.10;97.70
4755;DHT22;2391;47.212;7.542;2023-05-02T05:31:15;14.10;97.70
4755;DHT22;2391;47.212;7.542;2023-05-02T05:33:42;14.10;97.90
4755;DHT22;2391;47.212;7.542;2023-05-02T05:36:12;14.10;97.90
4755;DHT22;2391;47.212;7.542;2023-05-02T05:38:42;14.10;97.90
4755;DHT22;2391;47.212;7.542;2023-05-02T05:41:08;14.10;98.00
4755;DHT22;2391;47.212;7.542;2023-05-02T05:43:34;14.20;98.00
4755;DHT22;2391;47.212;7.542;2023-05-02T05:45:59;14.20;97.90
4755;DHT22;2391;47.212;7.542;2023-05-02T05:48:25;14.10;98.10
4755;DHT22;2391;47.212;7.542;2023-05-02T05:50:51;14.10;98.20
4755;DHT22;2391;47.212;7.542;2023-05-02T05:53:18;14.10;98.20
4755;DHT22;2391;47.212;7.542;2023-05-02T05:55:44;14.10;98.20
4755;DHT22;2391;47.212;7.542;2023-05-02T05:58:10;14.20;98.20
4755;DHT22;2391;47.212;7.542;2023-05-02T06:00:37;14.20;98.20
4755;DHT22;2391;47.212;7.542;2023-05-02T06:03:04;14.10;98.30
4755;DHT22;2391;47.212;7.542;2023-05-02T06:05:30;14.10;98.40
4755;DHT22;2391;47.212;7.542;2023-05-02T06:07:57;14.00;98.50
4755;DHT22;2391;47.212;7.542;2023-05-02T06:10:22;14.00;98.60
4755;DHT22;2391;47.212;7.542;2023-05-02T06:12:48;14.00;98.70
4755;DHT22;2391;47.212;7.542;2023-05-02T06:15:14;14.10;98.80
4755;DHT22;2391;47.212;7.542;2023-05-02T06:17:40;14.20;98.90
4755;DHT22;2391;47.212;7.542;2023-05-02T06:20:07;14.20;98.90
4755;DHT22;2391;47.212;7.542;2023-05-02T06:22:32;14.20;98.90
4755;DHT22;2391;47.212;7.542;2023-05-02T06:24:58;14.10;98.80
4755;DHT22;2391;47.212;7.542;2023-05-02T06:27:25;14.00;99.00
4755;DHT22;2391;47.212;7.542;2023-05-02T06:29:51;14.00;99.10
4755;DHT22;2391;47.212;7.542;2023-05-02T06:32:17;14.00;99.40
4755;DHT22;2391;47.212;7.542;2023-05-02T06:34:43;14.00;99.30
4755;DHT22;2391;47.212;7.542;2023-05-02T06:37:09;14.10;99.40
4755;DHT22;2391;47.212;7.542;2023-05-02T06:39:35;14.20;99.10
4755;DHT22;2391;47.212;7.542;2023-05-02T06:42:01;14.30;98.90
4755;DHT22;2391;47.212;7.542;2023-05-02T06:44:27;14.30;98.90
4755;DHT22;2391;47.212;7.542;2023-05-02T06:46:52;14.20;98.90
4755;DHT22;2391;47.212;7.542;2023-05-02T06:49:20;14.20;99.10
4755;DHT22;2391;47.212;7.542;2023-05-02T06:51:46;14.30;99.40
4755;DHT22;2391;47.212;7.542;2023-05-02T06:54:12;14.40;99.40
4755;DHT22;2391;47.212;7.542;2023-05-02T06:56:41;14.50;99.80
4755;DHT22;2391;47.212;7.542;2023-05-02T06:59:06;14.60;99.80
4755;DHT22;2391;47.212;7.542;2023-05-02T07:01:32;14.80;99.40
4755;DHT22;2391;47.212;7.542;2023-05-02T07:03:58;15.00;99.50
4755;DHT22;2391;47.212;7.542;2023-05-02T07:06:23;15.30;99.20
4755;DHT22;2391;47.212;7.542;2023-05-02T07:08:49;15.50;99.00
4755;DHT22;2391;47.212;7.542;2023-05-02T07:11:15;15.70;99.20
4755;DHT22;2391;47.212;7.542;2023-05-02T07:13:41;15.90;99.00
4755;DHT22;2391;47.212;7.542;2023-05-02T07:16:06;16.00;98.60
4755;DHT22;2391;47.212;7.542;2023-05-02T07:18:32;16.10;98.30
4755;DHT22;2391;47.212;7.542;2023-05-02T07:20:58;16.20;97.60
4755;DHT22;2391;47.212;7.542;2023-05-02T07:23:25;16.20;98.00
4755;DHT22;2391;47.212;7.542;2023-05-02T07:25:51;16.20;98.40
4755;DHT22;2391;47.212;7.542;2023-05-02T07:28:17;16.40;98.00
4755;DHT22;2391;47.212;7.542;2023-05-02T07:30:43;16.50;97.80
4755;DHT22;2391;47.212;7.542;2023-05-02T07:33:08;16.50;97.70
4755;DHT22;2391;47.212;7.542;2023-05-02T07:35:34;16.60;96.60
4755;DHT22;2391;47.212;7.542;2023-05-02T07:38:00;16.70;97.20
4755;DHT22;2391;47.212;7.542;2023-05-02T07:40:25;16.70;96.70
4755;DHT22;2391;47.212;7.542;2023-05-02T07:42:53;16.80;96.50
4755;DHT22;2391;47.212;7.542;2023-05-02T07:45:18;16.90;96.40
4755;DHT22;2391;47.212;7.542;2023-05-02T07:47:44;17.00;96.90
4755;DHT22;2391;47.212;7.542;2023-05-02T07:50:11;17.20;97.00
4755;DHT22;2391;47.212;7.542;2023-05-02T07:52:37;17.40;97.00
4755;DHT22;2391;47.212;7.542;2023-05-02T07:55:06;17.50;96.00
4755;DHT22;2391;47.212;7.542;2023-05-02T07:57:32;17.60;96.20
4755;DHT22;2391;47.212;7.542;2023-05-02T07:59:57;17.80;95.70
4755;DHT22;2391;47.212;7.542;2023-05-02T08:02:24;17.80;96.20
4755;DHT22;2391;47.212;7.542;2023-05-02T08:04:50;17.90;95.90
4755;DHT22;2391;47.212;7.542;2023-05-02T08:07:16;18.00;95.30
4755;DHT22;2391;47.212;7.542;2023-05-02T08:09:42;18.10;96.00
4755;DHT22;2391;47.212;7.542;2023-05-02T08:12:08;18.10;95.10
4755;DHT22;2391;47.212;7.542;2023-05-02T08:14:33;18.10;94.50
4755;DHT22;2391;47.212;7.542;2023-05-02T08:16:59;18.20;94.70
4755;DHT22;2391;47.212;7.542;2023-05-02T08:19:26;18.20;94.20
4755;DHT22;2391;47.212;7.542;2023-05-02T08:21:55;18.20;94.20
4755;DHT22;2391;47.212;7.542;2023-05-02T08:24:20;18.20;94.20
4755;DHT22;2391;47.212;7.542;2023-05-02T08:26:46;18.30;94.00
4755;DHT22;2391;47.212;7.542;2023-05-02T08:29:12;18.20;94.70
4755;DHT22;2391;47.212;7.542;2023-05-02T08:31:39;18.10;93.80
4755;DHT22;2391;47.212;7.542;2023-05-02T08:34:05;18.10;94.10
4755;DHT22;2391;47.212;7.542;2023-05-02T08:36:31;17.90;92.80
4755;DHT22;2391;47.212;7.542;2023-05-02T08:38:57;17.60;93.70
4755;DHT22;2391;47.212;7.542;2023-05-02T08:41:22;17.50;93.70
4755;DHT22;2391;47.212;7.542;2023-05-02T08:43:48;17.50;93.60
4755;DHT22;2391;47.212;7.542;2023-05-02T08:46:15;17.60;94.30
4755;DHT22;2391;47.212;7.542;2023-05-02T08:48:44;17.60;94.00
4755;DHT22;2391;47.212;7.542;2023-05-02T08:51:13;17.70;93.90
4755;DHT22;2391;47.212;7.542;2023-05-02T08:53:41;17.60;93.20
4755;DHT22;2391;47.212;7.542;2023-05-02T08:56:08;17.60;93.40
4755;DHT22;2391;47.212;7.542;2023-05-02T08:58:35;17.70;93.90
4755;DHT22;2391;47.212;7.542;2023-05-02T09:01:07;17.80;93.70
4755;DHT22;2391;47.212;7.542;2023-05-02T09:03:32;17.90;93.30
4755;DHT22;2391;47.212;7.542;2023-05-02T09:06:20;18.00;93.50
4755;DHT22;2391;47.212;7.542;2023-05-02T09:08:46;18.00;93.30
4755;DHT22;2391;47.212;7.542;2023-05-02T09:11:14;18.10;93.80
4755;DHT22;2391;47.212;7.542;2023-05-02T09:13:45;18.10;93.50
4755;DHT22;2391;47.212;7.542;2023-05-02T09:16:13;18.00;93.40
4755;DHT22;2391;47.212;7.542;2023-05-02T09:18:49;18.00;93.40
4755;DHT22;2391;47.212;7.542;2023-05-02T09:21:19;18.10;92.50
4755;DHT22;2391;47.212;7.542;2023-05-02T09:23:48;18.10;92.30
4755;DHT22;2391;47.212;7.542;2023-05-02T09:26:23;18.10;93.00
4755;DHT22;2391;47.212;7.542;2023-05-02T09:28:53;18.10;92.10
4755;DHT22;2391;47.212;7.542;2023-05-02T09:31:22;18.10;92.10
4755;DHT22;2391;47.212;7.542;2023-05-02T09:33:50;18.00;91.90
4755;DHT22;2391;47.212;7.542;2023-05-02T09:36:19;17.80;91.60
4755;DHT22;2391;47.212;7.542;2023-05-02T09:38:47;17.70;91.80
4755;DHT22;2391;47.212;7.542;2023-05-02T09:41:14;17.60;91.20
4755;DHT22;2391;47.212;7.542;2023-05-02T09:43:40;17.60;91.20
4755;DHT22;2391;47.212;7.542;2023-05-02T09:46:08;17.50;91.30
4755;DHT22;2391;47.212;7.542;2023-05-02T09:51:21;17.60;91.40
4755;DHT22;2391;47.212;7.542;2023-05-02T09:53:48;17.60;90.80
4755;DHT22;2391;47.212;7.542;2023-05-02T09:56:15;17.50;91.10
4755;DHT22;2391;47.212;7.542;2023-05-02T09:58:40;17.40;91.80
4755;DHT22;2391;47.212;7.542;2023-05-02T10:01:06;17.40;92.10
4755;DHT22;2391;47.212;7.542;2023-05-02T10:03:35;17.40;91.40
4755;DHT22;2391;47.212;7.542;2023-05-02T10:06:01;17.40;92.50
4755;DHT22;2391;47.212;7.542;2023-05-02T10:08:28;17.50;91.70
4755;DHT22;2391;47.212;7.542;2023-05-02T10:10:55;17.70;91.90
4755;DHT22;2391;47.212;7.542;2023-05-02T10:13:23;17.80;91.50
4755;DHT22;2391;47.212;7.542;2023-05-02T10:15:54;17.80;91.00
4755;DHT22;2391;47.212;7.542;2023-05-02T10:18:26;17.80;91.00
4755;DHT22;2391;47.212;7.542;2023-05-02T10:20:55;17.90;90.30
4755;DHT22;2391;47.212;7.542;2023-05-02T10:23:27;17.90;90.20
4755;DHT22;2391;47.212;7.542;2023-05-02T10:25:53;17.80;90.60
4755;DHT22;2391;47.212;7.542;2023-05-02T10:28:19;17.80;90.60
4755;DHT22;2391;47.212;7.542;2023-05-02T10:30:45;17.90;90.20
4755;DHT22;2391;47.212;7.542;2023-05-02T10:33:13;17.80;90.00
4755;DHT22;2391;47.212;7.542;2023-05-02T10:35:43;17.80;90.10
4755;DHT22;2391;47.212;7.542;2023-05-02T10:38:15;17.80;90.20
4755;DHT22;2391;47.212;7.542;2023-05-02T10:40:53;17.80;89.80
4755;DHT22;2391;47.212;7.542;2023-05-02T10:43:17;17.70;90.10
4755;DHT22;2391;47.212;7.542;2023-05-02T10:45:43;17.70;90.40
4755;DHT22;2391;47.212;7.542;2023-05-02T10:48:11;17.80;90.80
4755;DHT22;2391;47.212;7.542;2023-05-02T10:50:46;17.90;90.20
4755;DHT22;2391;47.212;7.542;2023-05-02T10:53:27;18.00;88.20
4755;DHT22;2391;47.212;7.542;2023-05-02T10:56:14;18.10;87.30
4755;DHT22;2391;47.212;7.542;2023-05-02T10:58:43;18.10;88.90
4755;DHT22;2391;47.212;7.542;2023-05-02T11:04:09;18.10;88.30
4755;DHT22;2391;47.212;7.542;2023-05-02T11:07:15;18.20;90.30
4755;DHT22;2391;47.212;7.542;2023-05-02T11:11:50;18.30;90.40
4755;DHT22;2391;47.212;7.542;2023-05-02T11:24:49;18.50;89.80
4755;DHT22;2391;47.212;7.542;2023-05-02T11:30:09;18.40;89.90
4755;DHT22;2391;47.212;7.542;2023-05-02T11:35:20;18.40;90.10
4755;DHT22;2391;47.212;7.542;2023-05-02T11:40:20;18.20;91.50
4755;DHT22;2391;47.212;7.542;2023-05-02T11:42:46;18.30;91.80
4755;DHT22;2391;47.212;7.542;2023-05-02T11:45:12;18.40;92.10
4755;DHT22;2391;47.212;7.542;2023-05-02T11:47:39;18.60;91.70
4755;DHT22;2391;47.212;7.542;2023-05-02T11:50:06;18.70;90.40
4755;DHT22;2391;47.212;7.542;2023-05-02T11:52:39;18.70;90.20
4755;DHT22;2391;47.212;7.542;2023-05-02T11:55:08;18.80;91.20
4755;DHT22;2391;47.212;7.542;2023-05-02T11:57:35;18.80;91.00
4755;DHT22;2391;47.212;7.542;2023-05-02T12:00:02;18.90;91.10
4755;DHT22;2391;47.212;7.542;2023-05-02T12:02:40;19.00;90.60
4755;DHT22;2391;47.212;7.542;2023-05-02T12:05:07;19.00;90.40
4755;DHT22;2391;47.212;7.542;2023-05-02T12:07:40;19.00;90.10
4755;DHT22;2391;47.212;7.542;2023-05-02T12:10:07;18.90;90.40
4755;DHT22;2391;47.212;7.542;2023-05-02T12:12:34;18.80;90.10
4755;DHT22;2391;47.212;7.542;2023-05-02T12:15:04;18.80;90.20
4755;DHT22;2391;47.212;7.542;2023-05-02T12:17:32;18.70;90.30
4755;DHT22;2391;47.212;7.542;2023-05-02T12:19:59;18.70;90.40
4755;DHT22;2391;47.212;7.542;2023-05-02T12:22:27;18.70;90.60
4755;DHT22;2391;47.212;7.542;2023-05-02T12:24:53;18.80;90.00
4755;DHT22;2391;47.212;7.542;2023-05-02T12:27:19;18.80;88.60
4755;DHT22;2391;47.212;7.542;2023-05-02T12:29:46;18.80;89.60
4755;DHT22;2391;47.212;7.542;2023-05-02T12:32:13;18.90;89.60
4755;DHT22;2391;47.212;7.542;2023-05-02T12:34:40;18.90;86.30
4755;DHT22;2391;47.212;7.542;2023-05-02T12:37:07;18.90;86.70
4755;DHT22;2391;47.212;7.542;2023-05-02T12:39:36;19.00;87.00
4755;DHT22;2391;47.212;7.542;2023-05-02T12:42:13;19.00;86.10
4755;DHT22;2391;47.212;7.542;2023-05-02T12:44:40;19.00;87.30
4755;DHT22;2391;47.212;7.542;2023-05-02T12:47:09;19.00;86.20
4755;DHT22;2391;47.212;7.542;2023-05-02T12:49:51;18.90;87.50
4755;DHT22;2391;47.212;7.542;2023-05-02T12:52:45;18.90;89.80
4755;DHT22;2391;47.212;7.542;2023-05-02T12:54:49;18.90;88.30
4755;DHT22;2391;47.212;7.542;2023-05-02T12:57:22;18.80;88.20
4755;DHT22;2391;47.212;7.542;2023-05-02T12:59:51;18.80;89.80
4755;DHT22;2391;47.212;7.542;2023-05-02T13:02:17;18.70;90.30
4755;DHT22;2391;47.212;7.542;2023-05-02T13:04:43;18.70;90.20
4755;DHT22;2391;47.212;7.542;2023-05-02T13:07:09;18.70;90.10
4755;DHT22;2391;47.212;7.542;2023-05-02T13:09:35;18.80;90.40
4755;DHT22;2391;47.212;7.542;2023-05-02T13:12:02;18.90;90.00
4755;DHT22;2391;47.212;7.542;2023-05-02T13:14:28;18.90;89.50
4755;DHT22;2391;47.212;7.542;2023-05-02T13:16:53;18.90;89.50
4755;DHT22;2391;47.212;7.542;2023-05-02T13:19:21;19.00;89.20
4755;DHT22;2391;47.212;7.542;2023-05-02T13:21:47;19.10;88.90
4755;DHT22;2391;47.212;7.542;2023-05-02T13:24:13;19.10;89.30
4755;DHT22;2391;47.212;7.542;2023-05-02T13:26:42;19.30;89.40
4755;DHT22;2391;47.212;7.542;2023-05-02T13:29:08;19.40;86.90
4755;DHT22;2391;47.212;7.542;2023-05-02T13:31:36;19.30;87.80
4755;DHT22;2391;47.212;7.542;2023-05-02T13:34:03;19.30;89.00
4755;DHT22;2391;47.212;7.542;2023-05-02T13:36:29;19.40;88.80
4755;DHT22;2391;47.212;7.542;2023-05-02T13:38:54;19.40;89.30
4755;DHT22;2391;47.212;7.542;2023-05-02T13:41:20;19.40;89.90
4755;DHT22;2391;47.212;7.542;2023-05-02T13:43:48;19.20;90.20
4755;DHT22;2391;47.212;7.542;2023-05-02T13:46:13;19.10;90.20
4755;DHT22;2391;47.212;7.542;2023-05-02T13:48:39;18.90;90.20
4755;DHT22;2391;47.212;7.542;2023-05-02T13:51:05;18.80;90.60
4755;DHT22;2391;47.212;7.542;2023-05-02T13:53:30;18.60;90.80
4755;DHT22;2391;47.212;7.542;2023-05-02T13:55:56;18.50;90.90
4755;DHT22;2391;47.212;7.542;2023-05-02T13:58:22;18.40;90.70
4755;DHT22;2391;47.212;7.542;2023-05-02T14:00:48;18.30;91.20
4755;DHT22;2391;47.212;7.542;2023-05-02T14:03:13;18.20;91.40
4755;DHT22;2391;47.212;7.542;2023-05-02T14:05:39;18.20;91.10
4755;DHT22;2391;47.212;7.542;2023-05-02T14:08:10;18.10;91.20
4755;DHT22;2391;47.212;7.542;2023-05-02T14:10:37;18.10;91.60
4755;DHT22;2391;47.212;7.542;2023-05-02T14:13:03;18.10;91.20
4755;DHT22;2391;47.212;7.542;2023-05-02T14:15:29;18.10;91.60
4755;DHT22;2391;47.212;7.542;2023-05-02T14:17:56;18.20;91.50
4755;DHT22;2391;47.212;7.542;2023-05-02T14:20:22;18.20;91.50
4755;DHT22;2391;47.212;7.542;2023-05-02T14:22:48;18.20;91.60
4755;DHT22;2391;47.212;7.542;2023-05-02T14:25:14;18.30;91.40
4755;DHT22;2391;47.212;7.542;2023-05-02T14:27:40;18.40;91.50
4755;DHT22;2391;47.212;7.542;2023-05-02T14:30:07;18.50;91.50
4755;DHT22;2391;47.212;7.542;2023-05-02T14:32:33;18.60;91.60
4755;DHT22;2391;47.212;7.542;2023-05-02T14:34:59;18.60;91.50
4755;DHT22;2391;47.212;7.542;2023-05-02T14:37:26;18.50;91.30
4755;DHT22;2391;47.212;7.542;2023-05-02T14:39:52;18.50;91.00
4755;DHT22;2391;47.212;7.542;2023-05-02T14:42:19;18.60;91.10
4755;DHT22;2391;47.212;7.542;2023-05-02T14:44:45;18.60;91.00
4755;DHT22;2391;47.212;7.542;2023-05-02T14:47:11;18.60;91.30
4755;DHT22;2391;47.212;7.542;2023-05-02T14:49:37;18.70;91.00
4755;DHT22;2391;47.212;7.542;2023-05-02T14:52:03;18.60;90.70
4755;DHT22;2391;47.212;7.542;2023-05-02T14:54:28;18.50;90.40
4755;DHT22;2391;47.212;7.542;2023-05-02T14:56:54;18.50;90.80
4755;DHT22;2391;47.212;7.542;2023-05-02T14:59:21;18.40;91.10
4755;DHT22;2391;47.212;7.542;2023-05-02T15:01:47;18.40;91.10
4755;DHT22;2391;47.212;7.542;2023-05-02T15:04:15;18.30;91.20
4755;DHT22;2391;47.212;7.542;2023-05-02T15:06:42;18.20;91.40
4755;DHT22;2391;47.212;7.542;2023-05-02T15:09:08;18.20;91.50
4755;DHT22;2391;47.212;7.542;2023-05-02T15:11:34;18.20;91.50
4755;DHT22;2391;47.212;7.542;2023-05-02T15:13:59;18.20;91.50
4755;DHT22;2391;47.212;7.542;2023-05-02T15:16:25;18.20;91.60
4755;DHT22;2391;47.212;7.542;2023-05-02T15:18:51;18.20;91.60
4755;DHT22;2391;47.212;7.542;2023-05-02T15:21:17;18.20;91.70
4755;DHT22;2391;47.212;7.542;2023-05-02T15:23:42;18.40;91.50
4755;DHT22;2391;47.212;7.542;2023-05-02T15:26:08;18.40;91.60
4755;DHT22;2391;47.212;7.542;2023-05-02T15:28:34;18.40;91.60
4755;DHT22;2391;47.212;7.542;2023-05-02T15:30:59;18.40;91.70
4755;DHT22;2391;47.212;7.542;2023-05-02T15:33:25;18.50;91.50
4755;DHT22;2391;47.212;7.542;2023-05-02T15:35:55;18.50;91.10
4755;DHT22;2391;47.212;7.542;2023-05-02T15:38:22;18.50;91.30
4755;DHT22;2391;47.212;7.542;2023-05-02T15:40:58;18.40;90.90
4755;DHT22;2391;47.212;7.542;2023-05-02T15:43:25;18.30;91.10
4755;DHT22;2391;47.212;7.542;2023-05-02T15:45:53;18.30;91.50
4755;DHT22;2391;47.212;7.542;2023-05-02T15:48:20;18.30;91.00
4755;DHT22;2391;47.212;7.542;2023-05-02T15:50:46;18.20;91.10
4755;DHT22;2391;47.212;7.542;2023-05-02T15:53:15;18.20;90.70
4755;DHT22;2391;47.212;7.542;2023-05-02T15:55:42;18.20;90.80
4755;DHT22;2391;47.212;7.542;2023-05-02T15:58:15;18.20;90.70
4755;DHT22;2391;47.212;7.542;2023-05-02T16:00:38;18.20;90.90
4755;DHT22;2391;47.212;7.542;2023-05-02T16:03:04;18.20;90.70
4755;DHT22;2391;47.212;7.542;2023-05-02T16:05:31;18.30;90.60
4755;DHT22;2391;47.212;7.542;2023-05-02T16:07:57;18.40;90.70
4755;DHT22;2391;47.212;7.542;2023-05-02T16:10:23;18.40;90.60
4755;DHT22;2391;47.212;7.542;2023-05-02T16:12:49;18.50;90.70
4755;DHT22;2391;47.212;7.542;2023-05-02T16:15:15;18.40;91.10
4755;DHT22;2391;47.212;7.542;2023-05-02T16:17:40;18.50;91.20
4755;DHT22;2391;47.212;7.542;2023-05-02T16:20:07;18.40;91.50
4755;DHT22;2391;47.212;7.542;2023-05-02T16:22:34;18.30;91.60
4755;DHT22;2391;47.212;7.542;2023-05-02T16:25:00;18.20;92.40
4755;DHT22;2391;47.212;7.542;2023-05-02T16:27:25;18.00;92.40
4755;DHT22;2391;47.212;7.542;2023-05-02T16:29:51;17.90;92.70
4755;DHT22;2391;47.212;7.542;2023-05-02T16:32:17;17.80;92.50
4755;DHT22;2391;47.212;7.542;2023-05-02T16:34:42;17.80;92.40
4755;DHT22;2391;47.212;7.542;2023-05-02T16:37:08;17.70;92.30
4755;DHT22;2391;47.212;7.542;2023-05-02T16:39:34;17.60;92.20